createdAt,value
2022-10-20T00:05:05.138Z,2.37
2022-10-20T00:10:28.198Z,3.00
2022-10-20T00:15:51.680Z,2.73
2022-10-20T00:21:18.222Z,2.57
2022-10-20T00:26:41.630Z,2.70
2022-10-20T00:32:04.842Z,2.77
2022-10-20T00:37:29.282Z,3.23
2022-10-20T00:42:52.408Z,3.20
2022-10-20T00:48:17.307Z,5.03
2022-10-20T00:53:41.793Z,2.87
2022-10-20T00:59:05.334Z,3.23
2022-10-20T01:04:30.953Z,2.77
2022-10-20T01:09:55.710Z,2.70
2022-10-20T01:21:23.291Z,3.57
2022-10-20T01:27:02.020Z,4.33
2022-10-20T01:32:33.900Z,3.53
2022-10-20T01:38:04.905Z,2.90
2022-10-20T01:43:30.058Z,3.50
2022-10-20T01:48:54.990Z,3.17
2022-10-20T01:54:26.487Z,3.93
2022-10-20T01:59:59.520Z,4.27
2022-10-20T02:05:37.653Z,3.27
2022-10-20T02:11:02.971Z,3.30
2022-10-20T02:16:29.620Z,3.20
2022-10-20T02:21:55.230Z,3.67
2022-10-20T02:27:20.624Z,4.13
2022-10-20T02:32:50.016Z,2.90
2022-10-20T02:38:14.538Z,3.10
2022-10-20T02:43:37.595Z,3.47
2022-10-20T02:49:00.620Z,3.40
2022-10-20T02:54:25.215Z,4.60
2022-10-20T02:59:48.327Z,3.83
2022-10-20T03:05:11.400Z,5.17
2022-10-20T03:10:37.484Z,3.33
2022-10-20T03:16:02.523Z,3.20
2022-10-20T03:21:25.608Z,2.77
2022-10-20T03:26:50.094Z,2.87
2022-10-20T03:32:13.192Z,3.43
2022-10-20T03:37:36.312Z,3.70
2022-10-20T03:43:00.835Z,4.17
2022-10-20T03:48:23.956Z,3.20
2022-10-20T03:53:47.041Z,4.20
2022-10-20T03:59:12.296Z,4.00
2022-10-20T04:04:36.043Z,3.73
2022-10-20T04:10:02.130Z,3.23
2022-10-20T04:15:26.669Z,3.53
2022-10-20T04:20:49.790Z,3.50
2022-10-20T04:26:14.546Z,3.57
2022-10-20T04:31:39.022Z,3.03
2022-10-20T04:37:02.260Z,3.40
2022-10-20T04:42:25.444Z,5.07
2022-10-20T04:47:49.843Z,3.23
2022-10-20T04:53:13.025Z,3.87
2022-10-20T04:58:36.769Z,4.07
2022-10-20T05:04:01.254Z,3.20
2022-10-20T05:09:24.382Z,4.60
2022-10-20T05:14:47.952Z,3.33
2022-10-20T05:20:12.673Z,4.03
2022-10-20T05:25:37.893Z,3.50
2022-10-20T05:31:03.309Z,3.67
2022-10-20T05:36:28.341Z,4.20
2022-10-20T05:41:51.460Z,4.23
2022-10-20T05:47:14.584Z,3.93
2022-10-20T05:52:39.311Z,4.17
2022-10-20T05:58:02.485Z,4.57
2022-10-20T06:03:28.299Z,4.57
2022-10-20T06:08:53.582Z,3.93
2022-10-20T06:14:17.317Z,4.97
2022-10-20T06:19:40.403Z,3.83
2022-10-20T06:25:05.598Z,3.97
2022-10-20T06:30:28.689Z,4.47
2022-10-20T06:35:51.808Z,4.20
2022-10-20T06:41:18.315Z,4.30
2022-10-20T06:46:41.451Z,4.67
2022-10-20T06:52:04.986Z,4.40
2022-10-20T06:57:32.075Z,3.90
2022-10-20T07:02:55.200Z,4.00
2022-10-20T07:08:18.382Z,5.27
2022-10-20T07:13:43.339Z,4.47
2022-10-20T07:19:06.475Z,5.27
2022-10-20T07:24:30.034Z,4.53
2022-10-20T07:29:54.564Z,4.83
2022-10-20T07:35:17.891Z,5.00
2022-10-20T07:40:40.990Z,4.77
2022-10-20T07:46:06.009Z,4.63
2022-10-20T07:51:31.657Z,5.27
2022-10-20T07:56:54.769Z,5.20
2022-10-20T08:02:20.747Z,5.40
2022-10-20T08:07:43.982Z,5.77
2022-10-20T08:13:07.263Z,5.13
2022-10-20T08:18:32.940Z,4.83
2022-10-20T08:23:56.185Z,5.13
2022-10-20T08:29:19.387Z,4.90
2022-10-20T08:34:43.815Z,4.07
2022-10-20T08:40:07.868Z,4.47
2022-10-20T08:45:34.689Z,4.90
2022-10-20T08:51:02.297Z,4.60
2022-10-20T08:56:27.428Z,5.10
2022-10-20T09:01:50.650Z,5.30
2022-10-20T09:07:23.737Z,6.07
2022-10-20T09:12:48.433Z,5.23
2022-10-20T09:18:13.457Z,4.73
2022-10-20T09:23:41.534Z,4.90
2022-10-20T09:29:13.466Z,5.80
2022-10-20T09:34:37.480Z,5.40
2022-10-20T09:40:01.958Z,4.83
2022-10-20T09:45:28.655Z,4.63
2022-10-20T09:50:55.106Z,5.03
2022-10-20T09:56:26.593Z,4.40
2022-10-20T10:01:57.591Z,4.60
2022-10-20T10:07:31.711Z,5.13
2022-10-20T10:13:00.763Z,5.80
2022-10-20T10:18:24.187Z,6.43
2022-10-20T10:23:54.758Z,7.37
2022-10-20T10:29:22.009Z,5.03
2022-10-20T10:34:52.496Z,5.27
2022-10-20T10:40:18.049Z,5.80
2022-10-20T10:45:51.454Z,5.43
2022-10-20T10:51:21.434Z,5.40
2022-10-20T10:56:46.367Z,6.50
2022-10-20T11:02:45.503Z,5.87
2022-10-20T11:08:19.415Z,5.33
2022-10-20T11:13:44.879Z,5.77
2022-10-20T11:19:35.381Z,6.27
2022-10-20T11:25:04.298Z,6.13
2022-10-20T11:30:28.339Z,6.10
2022-10-20T11:35:55.075Z,6.10
2022-10-20T11:41:23.873Z,7.13
2022-10-20T11:46:49.909Z,7.17
2022-10-20T11:52:55.911Z,6.63
2022-10-20T11:58:34.140Z,6.33
2022-10-20T12:04:26.855Z,7.17
2022-10-20T12:10:03.654Z,6.60
2022-10-20T12:15:28.873Z,6.73
2022-10-20T12:20:55.143Z,6.40
2022-10-20T12:26:42.385Z,5.70
2022-10-20T12:32:39.553Z,7.93
2022-10-20T12:38:05.361Z,7.47
2022-10-20T12:43:34.682Z,9.07
2022-10-20T12:49:01.136Z,8.40
2022-10-20T12:54:27.018Z,8.50
2022-10-20T12:59:50.182Z,8.63
2022-10-20T13:05:29.142Z,8.47
2022-10-20T13:11:13.175Z,9.53
2022-10-20T13:16:36.390Z,9.20
2022-10-20T13:22:00.962Z,9.53
2022-10-20T13:27:24.406Z,8.20
2022-10-20T13:33:11.232Z,9.27
2022-10-20T13:38:43.369Z,10.87
2022-10-20T13:44:11.957Z,9.00
2022-10-20T13:49:52.532Z,9.83
2022-10-20T13:55:21.469Z,10.63
2022-10-20T14:00:57.096Z,10.17
2022-10-20T14:06:30.921Z,9.80
2022-10-20T14:11:59.853Z,11.43
2022-10-20T14:17:26.426Z,10.53
2022-10-20T14:22:49.880Z,11.07
2022-10-20T14:28:19.929Z,10.37
2022-10-20T14:33:45.344Z,12.53
2022-10-20T14:39:18.301Z,11.27
2022-10-20T14:44:44.920Z,10.50
2022-10-20T14:50:15.085Z,13.20
2022-10-20T14:55:38.347Z,14.47
2022-10-20T15:01:16.885Z,10.93
2022-10-20T15:06:39.989Z,11.80
2022-10-20T15:12:06.506Z,11.37
2022-10-20T15:17:41.369Z,13.23
2022-10-20T15:23:06.319Z,11.33
2022-10-20T15:28:36.425Z,11.97
2022-10-20T15:34:03.719Z,11.63
2022-10-20T15:39:26.781Z,14.37
2022-10-20T15:44:52.770Z,14.03
2022-10-20T15:50:40.531Z,13.63
2022-10-20T15:56:03.566Z,12.60
2022-10-20T16:01:27.977Z,13.70
2022-10-20T16:06:57.627Z,13.30
2022-10-20T16:12:24.087Z,13.10
2022-10-20T16:23:17.159Z,12.27
2022-10-20T16:28:40.305Z,11.27
2022-10-20T16:34:03.444Z,12.93
2022-10-20T16:39:28.156Z,13.90
2022-10-20T16:44:51.242Z,13.40
2022-10-20T16:50:14.304Z,10.93
2022-10-20T16:55:38.780Z,15.77
2022-10-20T17:01:03.948Z,14.47
2022-10-20T17:06:27.906Z,13.50
2022-10-20T17:11:52.583Z,12.13
2022-10-20T17:17:15.589Z,14.03
2022-10-20T17:22:38.968Z,14.07
2022-10-20T17:28:03.558Z,14.87
2022-10-20T17:33:27.852Z,15.23
2022-10-20T17:38:54.528Z,14.97
2022-10-20T17:44:18.987Z,15.50
2022-10-20T17:49:42.037Z,13.33
2022-10-20T17:55:07.355Z,14.97
2022-10-20T18:00:51.485Z,14.20
2022-10-20T18:06:17.101Z,14.53
2022-10-20T18:11:41.458Z,16.50
2022-10-20T18:17:05.948Z,14.90
2022-10-20T18:22:29.020Z,14.63
2022-10-20T18:27:54.138Z,15.30
2022-10-20T18:33:18.565Z,14.07
2022-10-20T18:38:42.907Z,14.47
2022-10-20T18:44:08.180Z,14.97
2022-10-20T18:49:32.908Z,14.10
2022-10-20T18:54:56.119Z,14.67
2022-10-20T19:00:19.307Z,13.77
2022-10-20T19:05:43.719Z,16.60
2022-10-20T19:11:08.640Z,15.37
2022-10-20T19:16:33.366Z,15.07
2022-10-20T19:21:57.752Z,13.87
2022-10-20T19:27:26.486Z,15.63
2022-10-20T19:32:52.281Z,13.17
2022-10-20T19:38:16.759Z,13.23
2022-10-20T19:43:40.117Z,13.67
2022-10-20T19:49:03.218Z,11.70
2022-10-20T19:54:27.813Z,12.63
2022-10-20T19:59:50.908Z,13.57
2022-10-20T20:05:13.967Z,11.10
2022-10-20T20:10:38.917Z,11.57
2022-10-20T20:16:07.262Z,14.00
2022-10-20T20:21:31.296Z,13.13
2022-10-20T20:26:55.714Z,12.27
2022-10-20T20:32:18.786Z,11.73
2022-10-20T20:37:41.851Z,12.33
2022-10-20T20:43:06.208Z,11.40
2022-10-20T20:48:29.225Z,12.73
2022-10-20T20:53:52.251Z,13.60
2022-10-20T20:59:16.663Z,12.57
2022-10-20T21:04:39.743Z,12.70
2022-10-20T21:10:02.789Z,11.67
2022-10-20T21:15:27.214Z,11.57
2022-10-20T21:20:50.218Z,11.90
2022-10-20T21:26:14.989Z,12.40
2022-10-20T21:31:40.394Z,10.60
2022-10-20T21:37:03.438Z,11.37
2022-10-20T21:42:26.434Z,11.80
2022-10-20T21:47:55.382Z,12.90
2022-10-20T21:53:20.981Z,12.63
2022-10-20T21:58:44.151Z,11.70
2022-10-20T22:04:09.795Z,11.87
2022-10-20T22:09:32.946Z,10.03
2022-10-20T22:14:55.995Z,10.23
2022-10-20T22:20:20.412Z,11.50
2022-10-20T22:25:44.749Z,10.33
2022-10-20T22:31:08.687Z,10.40
2022-10-20T22:36:33.093Z,11.00
2022-10-20T22:41:56.070Z,11.63
2022-10-20T22:47:19.111Z,9.10
2022-10-20T22:52:43.542Z,11.30
2022-10-20T22:58:06.578Z,11.93
2022-10-20T23:03:29.624Z,11.30
2022-10-20T23:08:56.086Z,9.50
2022-10-20T23:14:19.353Z,11.00
2022-10-20T23:19:42.333Z,12.53
2022-10-20T23:25:07.670Z,12.50
2022-10-20T23:30:30.704Z,11.33
2022-10-20T23:35:53.720Z,11.90
2022-10-20T23:41:18.155Z,12.87
2022-10-20T23:46:41.121Z,10.97
2022-10-20T23:52:04.164Z,11.77
2022-10-20T23:57:28.585Z,12.57
